createdAt,value
2017-05-20T00:01:37.657Z,12.80
2017-05-20T00:04:03.817Z,12.80
2017-05-20T00:06:30.005Z,12.70
2017-05-20T00:08:57.078Z,12.50
2017-05-20T00:11:23.982Z,12.30
2017-05-20T00:13:50.166Z,12.30
2017-05-20T00:16:16.739Z,12.30
2017-05-20T00:18:42.890Z,12.20
2017-05-20T00:21:09.805Z,12.30
2017-05-20T00:23:36.746Z,12.30
2017-05-20T00:26:02.917Z,12.20
2017-05-20T00:28:29.850Z,12.20
2017-05-20T00:30:56.050Z,12.20
2017-05-20T00:33:22.950Z,12.10
2017-05-20T00:35:49.890Z,12.10
2017-05-20T00:38:16.082Z,12.10
2017-05-20T00:40:43.003Z,12.10
2017-05-20T00:43:09.931Z,12.10
2017-05-20T00:45:36.865Z,12.10
2017-05-20T00:48:03.799Z,12.10
2017-05-20T00:50:29.954Z,12.10
2017-05-20T00:52:56.133Z,12.20
2017-05-20T00:55:22.305Z,12.20
2017-05-20T00:57:49.219Z,12.20
2017-05-20T01:00:16.147Z,12.20
2017-05-20T01:02:42.326Z,12.20
2017-05-20T01:05:08.496Z,12.20
2017-05-20T01:07:35.527Z,12.20
2017-05-20T01:10:02.083Z,12.10
2017-05-20T01:12:28.247Z,12.10
2017-05-20T01:14:54.434Z,12.00
2017-05-20T01:17:21.365Z,11.90
2017-05-20T01:19:48.290Z,11.90
2017-05-20T01:22:14.470Z,11.90
2017-05-20T01:24:41.390Z,11.80
2017-05-20T01:27:08.323Z,11.80
2017-05-20T01:29:34.481Z,11.80
2017-05-20T01:32:01.404Z,11.70
2017-05-20T01:34:28.337Z,11.60
2017-05-20T01:36:54.548Z,11.60
2017-05-20T01:39:21.595Z,11.50
2017-05-20T01:41:48.526Z,11.50
2017-05-20T01:44:14.726Z,11.40
2017-05-20T01:46:41.683Z,11.50
2017-05-20T01:49:07.883Z,11.50
2017-05-20T01:51:34.063Z,11.50
2017-05-20T01:54:00.973Z,11.50
2017-05-20T01:56:27.903Z,11.50
2017-05-20T01:58:54.084Z,11.40
2017-05-20T02:01:20.278Z,11.40
2017-05-20T02:03:47.187Z,11.40
2017-05-20T02:06:13.375Z,11.40
2017-05-20T02:08:40.298Z,11.40
2017-05-20T02:11:07.205Z,11.40
2017-05-20T02:13:33.382Z,11.40
2017-05-20T02:15:59.929Z,11.40
2017-05-20T02:18:26.867Z,11.40
2017-05-20T02:20:53.037Z,11.40
2017-05-20T02:23:19.973Z,11.50
2017-05-20T02:25:46.158Z,11.40
2017-05-20T02:28:13.074Z,11.40
2017-05-20T02:30:39.281Z,11.40
2017-05-20T02:33:06.203Z,11.40
2017-05-20T02:35:32.383Z,11.30
2017-05-20T02:37:59.313Z,11.30
2017-05-20T02:40:25.480Z,11.30
2017-05-20T02:42:51.650Z,11.30
2017-05-20T02:45:18.561Z,11.30
2017-05-20T02:47:45.474Z,11.30
2017-05-20T02:50:11.662Z,11.30
2017-05-20T02:52:38.928Z,11.40
2017-05-20T02:55:05.109Z,11.30
2017-05-20T02:57:32.034Z,11.40
2017-05-20T02:59:58.949Z,11.40
2017-05-20T03:02:25.117Z,11.40
2017-05-20T03:04:51.303Z,11.40
2017-05-20T03:07:17.486Z,11.40
2017-05-20T03:09:43.667Z,11.40
2017-05-20T03:12:10.579Z,11.40
2017-05-20T03:14:37.510Z,11.40
2017-05-20T03:17:04.416Z,11.30
2017-05-20T03:19:30.613Z,11.30
2017-05-20T03:21:56.797Z,11.30
2017-05-20T03:24:23.709Z,11.30
2017-05-20T03:26:50.609Z,11.30
2017-05-20T03:29:17.526Z,11.30
2017-05-20T03:31:44.428Z,11.30
2017-05-20T03:34:11.371Z,11.20
2017-05-20T03:36:37.556Z,11.20
2017-05-20T03:39:03.747Z,11.20
2017-05-20T03:41:29.893Z,11.20
2017-05-20T03:43:56.812Z,11.30
2017-05-20T03:46:22.997Z,11.20
2017-05-20T03:48:49.911Z,11.20
2017-05-20T03:51:16.850Z,11.20
2017-05-20T03:53:43.010Z,11.20
2017-05-20T03:56:09.170Z,11.20
2017-05-20T03:58:36.442Z,11.30
2017-05-20T04:01:03.353Z,11.40
2017-05-20T04:03:29.523Z,11.30
2017-05-20T04:05:55.707Z,11.40
2017-05-20T04:08:21.894Z,11.40
2017-05-20T04:10:48.090Z,11.50
2017-05-20T04:13:15.066Z,11.60
2017-05-20T04:15:41.236Z,11.60
2017-05-20T04:18:08.138Z,11.90
2017-05-20T04:20:34.337Z,11.80
2017-05-20T04:23:01.557Z,12.00
2017-05-20T04:25:27.725Z,12.00
2017-05-20T04:27:54.646Z,12.20
2017-05-20T04:30:21.561Z,12.30
2017-05-20T04:32:47.734Z,12.30
2017-05-20T04:35:14.656Z,12.40
2017-05-20T04:37:40.823Z,12.40
2017-05-20T04:40:06.994Z,12.40
2017-05-20T04:42:33.186Z,12.40
2017-05-20T04:45:00.099Z,12.40
2017-05-20T04:47:26.282Z,12.30
2017-05-20T04:49:53.230Z,12.30
2017-05-20T04:52:19.431Z,12.20
2017-05-20T04:54:46.343Z,12.30
2017-05-20T04:57:12.535Z,12.30
2017-05-20T04:59:38.709Z,12.30
2017-05-20T05:02:04.929Z,12.40
2017-05-20T05:04:31.166Z,12.40
2017-05-20T05:06:58.072Z,12.40
2017-05-20T05:09:24.255Z,12.40
2017-05-20T05:11:51.223Z,12.40
2017-05-20T05:14:18.229Z,12.40
2017-05-20T05:16:44.446Z,12.40
2017-05-20T05:19:10.683Z,12.40
2017-05-20T05:21:37.638Z,12.30
2017-05-20T05:24:04.582Z,12.30
2017-05-20T05:26:31.503Z,12.20
2017-05-20T05:28:58.441Z,12.10
2017-05-20T05:31:24.684Z,12.10
2017-05-20T05:33:51.206Z,12.00
2017-05-20T05:36:18.136Z,12.10
2017-05-20T05:38:44.369Z,12.10
2017-05-20T05:41:11.509Z,12.30
2017-05-20T05:43:38.430Z,12.30
2017-05-20T05:46:04.628Z,12.30
2017-05-20T05:48:31.548Z,12.40
2017-05-20T05:50:58.463Z,12.40
2017-05-20T05:53:24.626Z,12.40
2017-05-20T05:55:51.546Z,12.40
2017-05-20T05:58:17.709Z,12.40
2017-05-20T06:00:44.648Z,12.30
2017-05-20T06:03:10.854Z,12.30
2017-05-20T06:05:37.024Z,12.30
2017-05-20T06:08:03.980Z,12.30
2017-05-20T06:10:30.334Z,12.30
2017-05-20T06:12:56.563Z,12.30
2017-05-20T06:15:23.564Z,12.50
2017-05-20T06:17:50.536Z,12.50
2017-05-20T06:20:16.742Z,12.40
2017-05-20T06:22:42.955Z,12.50
2017-05-20T06:25:09.897Z,12.60
2017-05-20T06:27:36.084Z,12.60
2017-05-20T06:30:03.007Z,12.80
2017-05-20T06:32:29.217Z,12.80
2017-05-20T06:34:56.134Z,12.90
2017-05-20T06:37:22.345Z,12.90
2017-05-20T06:39:48.831Z,12.90
2017-05-20T06:42:15.728Z,12.80
2017-05-20T06:44:42.650Z,12.80
2017-05-20T06:47:08.851Z,12.70
2017-05-20T06:49:35.038Z,12.70
2017-05-20T06:52:01.228Z,12.80
2017-05-20T06:54:27.433Z,12.80
2017-05-20T06:56:53.621Z,12.90
2017-05-20T06:59:19.773Z,13.00
2017-05-20T07:01:46.706Z,13.20
2017-05-20T07:04:13.620Z,14.90
2017-05-20T07:06:39.852Z,14.90
2017-05-20T07:09:06.614Z,17.80
2017-05-20T07:11:33.566Z,19.60
2017-05-20T07:13:59.733Z,19.60
2017-05-20T07:16:26.983Z,19.50
2017-05-20T07:18:53.909Z,18.70
2017-05-20T07:21:20.859Z,17.70
2017-05-20T07:23:47.765Z,16.90
2017-05-20T07:26:13.954Z,16.80
2017-05-20T07:28:40.878Z,15.70
2017-05-20T07:31:07.147Z,15.70
2017-05-20T07:33:33.334Z,15.40
2017-05-20T07:35:59.507Z,15.20
2017-05-20T07:38:26.465Z,15.40
2017-05-20T07:40:53.425Z,15.90
2017-05-20T07:43:19.625Z,15.90
2017-05-20T07:45:45.852Z,16.90
2017-05-20T07:48:12.797Z,21.70
2017-05-20T07:50:39.731Z,22.60
2017-05-20T07:53:06.652Z,22.30
2017-05-20T07:55:33.603Z,21.50
2017-05-20T07:58:00.537Z,20.70
2017-05-20T08:00:27.475Z,19.90
2017-05-20T08:02:53.649Z,19.90
2017-05-20T08:05:20.566Z,18.10
2017-05-20T08:07:46.766Z,18.10
2017-05-20T08:10:12.978Z,17.80
2017-05-20T08:12:39.191Z,18.30
2017-05-20T08:15:05.428Z,18.70
2017-05-20T08:17:31.626Z,18.50
2017-05-20T08:19:57.867Z,18.10
2017-05-20T08:22:24.059Z,17.90
2017-05-20T08:24:50.280Z,18.50
2017-05-20T08:27:16.641Z,18.90
2017-05-20T08:29:43.664Z,19.20
2017-05-20T08:32:09.909Z,19.20
2017-05-20T08:34:36.088Z,18.80
2017-05-20T08:37:02.331Z,18.20
2017-05-20T08:39:28.543Z,17.70
2017-05-20T08:41:55.591Z,17.80
2017-05-20T08:44:21.819Z,17.80
2017-05-20T08:46:48.059Z,18.10
2017-05-20T08:49:14.275Z,18.40
2017-05-20T08:51:41.306Z,18.40
2017-05-20T08:54:07.513Z,18.40
2017-05-20T08:56:34.526Z,17.50
2017-05-20T08:59:00.702Z,17.50
2017-05-20T09:01:26.908Z,17.20
2017-05-20T09:03:53.117Z,17.00
2017-05-20T09:06:20.049Z,17.40
2017-05-20T09:08:47.064Z,17.40
2017-05-20T09:11:13.244Z,17.40
2017-05-20T09:13:40.492Z,17.00
2017-05-20T09:16:06.701Z,17.00
2017-05-20T09:18:32.920Z,16.90
2017-05-20T09:20:59.484Z,16.80
2017-05-20T09:23:25.687Z,17.00
2017-05-20T09:25:52.607Z,17.10
2017-05-20T09:28:19.561Z,17.00
2017-05-20T09:30:46.473Z,17.10
2017-05-20T09:33:13.412Z,17.40
2017-05-20T09:35:39.641Z,17.40
2017-05-20T09:38:05.840Z,17.60
2017-05-20T09:40:32.033Z,17.70
2017-05-20T09:42:58.983Z,17.60
2017-05-20T09:45:25.203Z,17.60
2017-05-20T09:47:52.135Z,17.20
2017-05-20T09:50:18.326Z,17.10
2017-05-20T09:52:45.230Z,17.60
2017-05-20T09:55:11.425Z,17.60
2017-05-20T09:57:37.632Z,18.00
2017-05-20T10:00:04.558Z,18.60
2017-05-20T10:02:30.763Z,18.60
2017-05-20T10:04:57.694Z,18.50
2017-05-20T10:07:24.616Z,18.20
2017-05-20T10:09:51.563Z,17.90
2017-05-20T10:12:18.602Z,17.90
2017-05-20T10:14:45.643Z,17.90
2017-05-20T10:17:12.602Z,18.20
2017-05-20T10:19:39.970Z,18.40
2017-05-20T10:22:06.189Z,18.40
2017-05-20T10:24:33.244Z,18.90
2017-05-20T10:26:59.498Z,18.80
2017-05-20T10:29:26.415Z,19.10
2017-05-20T10:31:53.361Z,19.00
2017-05-20T10:34:20.320Z,19.00
2017-05-20T10:36:47.273Z,19.00
2017-05-20T10:39:14.185Z,19.00
2017-05-20T10:41:41.132Z,19.10
2017-05-20T10:44:08.072Z,19.20
2017-05-20T10:46:35.014Z,19.30
2017-05-20T10:49:01.971Z,19.30
2017-05-20T10:51:28.923Z,19.40
2017-05-20T10:53:55.927Z,19.50
2017-05-20T10:56:22.879Z,19.40
2017-05-20T10:58:49.099Z,19.40
2017-05-20T11:01:15.376Z,19.30
2017-05-20T11:03:41.586Z,19.10
2017-05-20T11:06:07.771Z,19.00
2017-05-20T11:08:34.026Z,19.00
2017-05-20T11:11:00.270Z,19.10
2017-05-20T11:13:26.470Z,19.00
2017-05-20T11:15:52.701Z,19.00
2017-05-20T11:18:19.204Z,19.10
2017-05-20T11:20:46.189Z,19.20
2017-05-20T11:23:12.431Z,19.20
2017-05-20T11:25:38.949Z,19.30
2017-05-20T11:28:05.194Z,19.60
2017-05-20T11:30:32.148Z,19.80
2017-05-20T11:32:58.753Z,19.70
2017-05-20T11:41:24.736Z,19.50
2017-05-20T11:43:54.784Z,19.50
2017-05-20T11:46:25.176Z,19.60
2017-05-20T11:48:55.887Z,19.60
2017-05-20T11:51:26.550Z,19.70
2017-05-20T11:53:57.509Z,19.80
2017-05-20T11:56:27.416Z,19.80
2017-05-20T11:58:58.207Z,19.80
2017-05-20T12:01:31.032Z,19.90
2017-05-20T12:03:58.274Z,20.00
2017-05-20T12:06:26.695Z,19.80
2017-05-20T12:08:53.972Z,19.60
2017-05-20T12:11:21.217Z,19.50
2017-05-20T12:13:48.446Z,19.30
2017-05-20T12:16:15.692Z,19.40
2017-05-20T12:18:43.352Z,19.50
2017-05-20T12:21:10.650Z,19.60
2017-05-20T12:23:38.257Z,19.70
2017-05-20T12:26:05.451Z,19.70
2017-05-20T12:28:32.660Z,19.70
2017-05-20T12:31:15.200Z,19.80
2017-05-20T12:33:42.897Z,20.00
2017-05-20T12:36:10.098Z,20.20
2017-05-20T12:38:37.280Z,20.30
2017-05-20T12:41:04.631Z,20.10
2017-05-20T12:43:31.817Z,20.00
2017-05-20T12:45:59.017Z,19.80
2017-05-20T12:48:26.226Z,19.70
2017-05-20T12:50:54.489Z,19.70
2017-05-20T12:53:21.783Z,19.70
2017-05-20T12:55:49.373Z,19.80
2017-05-20T12:58:16.642Z,20.00
2017-05-20T13:00:43.917Z,20.30
2017-05-20T13:03:11.135Z,20.40
2017-05-20T13:05:38.320Z,20.60
2017-05-20T13:08:05.539Z,20.50
2017-05-20T13:10:32.743Z,20.40
2017-05-20T13:12:59.986Z,20.50
2017-05-20T13:15:27.202Z,20.70
2017-05-20T13:17:54.429Z,20.80
2017-05-20T13:20:21.600Z,20.90
2017-05-20T13:22:48.973Z,21.10
2017-05-20T13:25:16.246Z,21.00
2017-05-20T13:27:43.445Z,20.90
2017-05-20T13:30:10.695Z,20.90
2017-05-20T13:32:37.869Z,20.90
2017-05-20T13:35:05.242Z,21.00
2017-05-20T13:37:32.518Z,21.10
2017-05-20T13:39:59.704Z,21.10
2017-05-20T13:42:26.966Z,21.00
2017-05-20T13:44:54.180Z,21.00
2017-05-20T13:47:21.457Z,21.00
2017-05-20T13:49:49.336Z,20.80
2017-05-20T13:52:16.570Z,20.60
2017-05-20T13:54:43.761Z,20.50
2017-05-20T13:57:10.968Z,20.40
2017-05-20T13:59:38.136Z,20.30
2017-05-20T14:02:05.380Z,20.30
2017-05-20T14:04:32.586Z,20.30
2017-05-20T14:06:59.827Z,20.40
2017-05-20T14:09:27.010Z,20.40
2017-05-20T14:11:54.165Z,20.30
2017-05-20T14:14:21.448Z,20.20
2017-05-20T14:16:48.663Z,20.10
2017-05-20T14:19:15.872Z,20.10
2017-05-20T14:21:43.112Z,20.10
2017-05-20T14:24:10.422Z,20.10
2017-05-20T14:26:37.624Z,20.10
2017-05-20T14:29:05.466Z,20.10
2017-05-20T14:31:32.756Z,20.00
2017-05-20T14:34:00.018Z,19.90
2017-05-20T14:36:27.290Z,19.90
2017-05-20T14:38:54.458Z,19.90
2017-05-20T14:41:21.638Z,19.80
2017-05-20T14:43:48.890Z,19.80
2017-05-20T14:46:16.109Z,19.80
2017-05-20T14:48:43.327Z,19.80
2017-05-20T14:51:10.543Z,19.70
2017-05-20T14:53:37.747Z,19.60
2017-05-20T14:56:04.927Z,19.60
2017-05-20T14:58:32.144Z,19.60
2017-05-20T15:01:14.246Z,19.60
2017-05-20T15:03:41.446Z,19.60
2017-05-20T15:06:09.293Z,19.50
2017-05-20T15:08:36.490Z,19.50
2017-05-20T15:11:04.173Z,19.50
2017-05-20T15:13:31.455Z,19.50
2017-05-20T15:15:58.935Z,19.40
2017-05-20T15:18:26.214Z,19.40
2017-05-20T15:20:54.094Z,19.30
2017-05-20T15:23:21.295Z,19.30
2017-05-20T15:25:48.502Z,19.30
2017-05-20T15:28:16.430Z,19.30
2017-05-20T15:30:43.709Z,19.20
2017-05-20T15:33:10.980Z,19.10
2017-05-20T15:35:38.255Z,19.10
2017-05-20T15:38:05.533Z,19.00
2017-05-20T15:40:32.802Z,18.90
2017-05-20T15:43:00.079Z,18.90
2017-05-20T15:45:27.316Z,18.80
2017-05-20T15:47:54.544Z,18.80
2017-05-20T15:50:21.797Z,18.70
2017-05-20T15:52:49.077Z,18.70
2017-05-20T15:55:16.276Z,18.70
2017-05-20T15:57:43.522Z,18.70
2017-05-20T16:00:10.793Z,18.70
2017-05-20T16:02:38.068Z,18.60
2017-05-20T16:05:05.549Z,18.60
2017-05-20T16:07:32.766Z,18.60
2017-05-20T16:09:59.946Z,18.60
2017-05-20T16:12:27.367Z,18.50
2017-05-20T16:14:54.650Z,18.40
2017-05-20T16:17:21.847Z,18.30
2017-05-20T16:19:49.047Z,18.30
2017-05-20T16:22:16.245Z,18.30
2017-05-20T16:24:44.128Z,18.30
2017-05-20T16:27:11.344Z,18.20
2017-05-20T16:29:38.596Z,18.30
2017-05-20T16:32:05.805Z,18.30
2017-05-20T16:34:33.041Z,18.30
2017-05-20T16:37:00.316Z,18.30
2017-05-20T16:39:27.569Z,18.30
2017-05-20T16:41:54.867Z,18.30
2017-05-20T16:44:22.142Z,18.20
2017-05-20T16:46:49.395Z,18.20
2017-05-20T16:49:16.612Z,18.20
2017-05-20T16:51:43.862Z,18.20
2017-05-20T16:54:11.134Z,18.20
2017-05-20T16:56:38.373Z,18.20
2017-05-20T16:59:05.598Z,18.10
2017-05-20T17:01:33.321Z,18.10
2017-05-20T17:04:00.638Z,18.10
2017-05-20T17:06:27.821Z,18.00
2017-05-20T17:08:55.090Z,18.00
2017-05-20T17:11:22.359Z,17.90
2017-05-20T17:13:49.582Z,17.80
2017-05-20T17:16:17.117Z,17.60
2017-05-20T17:18:44.295Z,17.50
2017-05-20T17:21:11.556Z,17.40
2017-05-20T17:23:38.835Z,17.30
2017-05-20T17:26:06.038Z,17.20
2017-05-20T17:28:33.291Z,17.10
2017-05-20T17:31:00.479Z,17.10
2017-05-20T17:33:27.687Z,17.00
2017-05-20T17:35:55.002Z,17.00
2017-05-20T17:38:22.201Z,16.90
2017-05-20T17:40:49.411Z,16.90
2017-05-20T17:43:16.603Z,16.80
2017-05-20T17:45:43.829Z,16.70
2017-05-20T17:48:11.068Z,16.70
2017-05-20T17:50:38.277Z,16.60
2017-05-20T17:53:05.458Z,16.50
2017-05-20T17:55:32.677Z,16.40
2017-05-20T17:57:59.862Z,16.40
2017-05-20T18:00:27.133Z,16.30
2017-05-20T18:02:54.365Z,16.30
2017-05-20T18:05:21.593Z,16.30
2017-05-20T18:07:48.851Z,16.20
2017-05-20T18:10:16.125Z,16.10
2017-05-20T18:12:43.484Z,16.10
2017-05-20T18:15:10.780Z,16.00
2017-05-20T18:17:38.168Z,16.00
2017-05-20T18:20:05.398Z,15.90
2017-05-20T18:22:32.635Z,15.80
2017-05-20T18:24:59.978Z,15.80
2017-05-20T18:27:27.193Z,15.80
2017-05-20T18:29:54.391Z,15.70
2017-05-20T18:32:21.609Z,15.70
2017-05-20T18:34:48.873Z,15.70
2017-05-20T18:37:16.110Z,15.60
2017-05-20T18:39:43.364Z,15.60
2017-05-20T18:42:10.594Z,15.60
2017-05-20T18:44:37.930Z,15.60
2017-05-20T18:47:05.249Z,15.50
2017-05-20T18:49:32.443Z,15.50
2017-05-20T18:51:59.635Z,15.40
2017-05-20T18:54:26.961Z,15.40
2017-05-20T18:56:54.240Z,15.40
2017-05-20T18:59:21.920Z,15.30
2017-05-20T19:01:49.176Z,15.30
2017-05-20T19:04:16.425Z,15.30
2017-05-20T19:06:43.820Z,15.20
2017-05-20T19:09:11.219Z,15.20
2017-05-20T19:11:38.507Z,15.20
2017-05-20T19:14:05.717Z,15.20
2017-05-20T19:16:32.921Z,15.10
2017-05-20T19:19:00.196Z,15.10
2017-05-20T19:21:27.449Z,15.10
2017-05-20T19:23:54.768Z,15.00
2017-05-20T19:26:21.962Z,15.00
2017-05-20T19:28:49.313Z,15.00
2017-05-20T19:31:16.559Z,15.00
2017-05-20T19:33:44.379Z,15.00
2017-05-20T19:36:11.755Z,15.00
2017-05-20T19:38:39.625Z,14.90
2017-05-20T19:41:06.832Z,14.90
2017-05-20T19:43:34.030Z,14.90
2017-05-20T19:46:01.256Z,14.90
2017-05-20T19:48:28.482Z,14.90
2017-05-20T19:50:55.805Z,14.80
2017-05-20T19:53:23.017Z,14.80
2017-05-20T19:55:50.355Z,14.80
2017-05-20T19:58:17.629Z,14.80
2017-05-20T20:00:44.965Z,14.80
2017-05-20T20:03:12.278Z,14.80
2017-05-20T20:05:39.503Z,14.70
2017-05-20T20:08:06.833Z,14.70
2017-05-20T20:10:34.108Z,14.70
2017-05-20T20:13:01.346Z,14.70
2017-05-20T20:15:29.249Z,14.70
2017-05-20T20:17:56.435Z,14.70
2017-05-20T20:20:23.635Z,14.60
2017-05-20T20:22:50.839Z,14.60
2017-05-20T20:25:18.074Z,14.60
2017-05-20T20:27:45.328Z,14.60
2017-05-20T20:30:12.513Z,14.60
2017-05-20T20:32:39.790Z,14.60
2017-05-20T20:35:07.325Z,14.60
2017-05-20T20:37:34.527Z,14.60
2017-05-20T20:40:01.980Z,14.60
2017-05-20T20:42:29.339Z,14.60
2017-05-20T20:44:56.658Z,14.60
2017-05-20T20:47:23.947Z,14.50
2017-05-20T20:49:51.327Z,14.60
2017-05-20T20:52:18.660Z,14.50
2017-05-20T20:54:45.960Z,14.50
2017-05-20T20:57:13.840Z,14.50
2017-05-20T20:59:41.225Z,14.50
2017-05-20T21:02:08.608Z,14.40
2017-05-20T21:04:35.909Z,14.40
2017-05-20T21:07:03.258Z,14.40
2017-05-20T21:09:30.730Z,14.30
2017-05-20T21:11:57.974Z,14.30
2017-05-20T21:14:25.482Z,14.30
2017-05-20T21:16:52.868Z,14.20
2017-05-20T21:19:20.219Z,14.30
2017-05-20T21:21:47.589Z,14.20
2017-05-20T21:24:14.820Z,14.20
2017-05-20T21:26:42.043Z,14.20
2017-05-20T21:29:09.537Z,14.20
2017-05-20T21:31:36.814Z,14.10
2017-05-20T21:34:04.040Z,14.10
2017-05-20T21:36:31.665Z,14.10
2017-05-20T21:38:58.941Z,14.10
2017-05-20T21:41:26.324Z,14.00
2017-05-20T21:43:54.137Z,14.00
2017-05-20T21:46:21.325Z,14.00
2017-05-20T21:48:48.606Z,14.00
2017-05-20T21:51:16.387Z,13.90
2017-05-20T21:53:43.594Z,13.90
2017-05-20T21:56:10.834Z,13.90
2017-05-20T21:58:38.076Z,13.90
2017-05-20T22:01:05.330Z,13.90
2017-05-20T22:03:32.855Z,13.80
2017-05-20T22:06:00.077Z,13.80
2017-05-20T22:08:27.357Z,13.80
2017-05-20T22:10:54.532Z,13.70
2017-05-20T22:13:21.804Z,13.70
2017-05-20T22:16:03.956Z,13.70
2017-05-20T22:18:31.520Z,13.70
2017-05-20T22:20:58.680Z,13.60
2017-05-20T22:23:25.857Z,13.60
2017-05-20T22:25:53.540Z,13.60
2017-05-20T22:28:20.725Z,13.50
2017-05-20T22:30:48.021Z,13.50
2017-05-20T22:33:15.231Z,13.50
2017-05-20T22:35:42.410Z,13.40
2017-05-20T22:38:09.586Z,13.40
2017-05-20T22:40:37.006Z,13.30
2017-05-20T22:43:04.170Z,13.30
2017-05-20T22:45:31.360Z,13.30
2017-05-20T22:47:58.551Z,13.30
2017-05-20T22:50:25.835Z,13.20
2017-05-20T22:52:53.028Z,13.20
2017-05-20T22:55:20.284Z,13.20
2017-05-20T22:57:47.692Z,13.20
2017-05-20T23:00:15.098Z,13.10
2017-05-20T23:02:42.312Z,13.10
2017-05-20T23:05:09.509Z,13.10
2017-05-20T23:07:36.876Z,13.00
2017-05-20T23:10:04.213Z,13.00
2017-05-20T23:12:31.393Z,13.00
2017-05-20T23:14:58.688Z,13.00
2017-05-20T23:17:25.882Z,12.90
2017-05-20T23:19:53.222Z,12.90
2017-05-20T23:22:20.516Z,12.90
2017-05-20T23:24:47.794Z,12.80
2017-05-20T23:27:14.970Z,12.80
2017-05-20T23:29:42.310Z,12.80
2017-05-20T23:32:09.514Z,12.70
2017-05-20T23:34:37.023Z,12.70
2017-05-20T23:37:04.243Z,12.70
2017-05-20T23:39:31.439Z,12.70
2017-05-20T23:41:58.948Z,12.60
2017-05-20T23:44:26.143Z,12.60
2017-05-20T23:46:53.520Z,12.60
2017-05-20T23:49:20.929Z,12.60
2017-05-20T23:51:48.125Z,12.60
2017-05-20T23:54:15.329Z,12.60
2017-05-20T23:56:42.513Z,12.60
2017-05-20T23:59:10.047Z,12.60
